sensor_id;sensor_type;location;lat;lon;timestamp;P1;durP1;ratioP1;P2;durP2;ratioP2
9773;SDS011;4926;42.670;23.316;2022-12-07T00:01:05;58.22;;;33.35;;
9773;SDS011;4926;42.670;23.316;2022-12-07T00:03:32;52.53;;;29.25;;
9773;SDS011;4926;42.670;23.316;2022-12-07T00:06:00;63.75;;;33.55;;
9773;SDS011;4926;42.670;23.316;2022-12-07T00:08:27;37.92;;;24.75;;
9773;SDS011;4926;42.670;23.316;2022-12-07T00:10:54;43.92;;;24.02;;
9773;SDS011;4926;42.670;23.316;2022-12-07T00:13:21;38.38;;;24.17;;
9773;SDS011;4926;42.670;23.316;2022-12-07T00:15:47;40.13;;;23.70;;
9773;SDS011;4926;42.670;23.316;2022-12-07T00:18:16;40.22;;;25.38;;
9773;SDS011;4926;42.670;23.316;2022-12-07T00:20:45;49.38;;;27.75;;
9773;SDS011;4926;42.670;23.316;2022-12-07T00:23:12;49.65;;;27.77;;
9773;SDS011;4926;42.670;23.316;2022-12-07T00:25:39;49.50;;;28.35;;
9773;SDS011;4926;42.670;23.316;2022-12-07T00:28:05;43.88;;;27.80;;
9773;SDS011;4926;42.670;23.316;2022-12-07T00:30:35;57.72;;;27.92;;
9773;SDS011;4926;42.670;23.316;2022-12-07T00:33:02;49.53;;;28.40;;
9773;SDS011;4926;42.670;23.316;2022-12-07T00:35:30;48.50;;;27.92;;
9773;SDS011;4926;42.670;23.316;2022-12-07T00:37:57;41.92;;;25.90;;
9773;SDS011;4926;42.670;23.316;2022-12-07T00:40:23;44.30;;;27.10;;
9773;SDS011;4926;42.670;23.316;2022-12-07T00:42:50;40.50;;;24.35;;
9773;SDS011;4926;42.670;23.316;2022-12-07T00:45:19;34.40;;;19.63;;
9773;SDS011;4926;42.670;23.316;2022-12-07T00:47:46;33.63;;;19.65;;
9773;SDS011;4926;42.670;23.316;2022-12-07T00:50:13;30.38;;;17.70;;
9773;SDS011;4926;42.670;23.316;2022-12-07T00:52:43;30.42;;;17.88;;
9773;SDS011;4926;42.670;23.316;2022-12-07T00:55:09;31.02;;;18.17;;
9773;SDS011;4926;42.670;23.316;2022-12-07T00:57:36;31.63;;;19.10;;
9773;SDS011;4926;42.670;23.316;2022-12-07T01:00:03;30.27;;;17.73;;
9773;SDS011;4926;42.670;23.316;2022-12-07T01:02:33;31.38;;;17.23;;
9773;SDS011;4926;42.670;23.316;2022-12-07T01:04:59;30.45;;;18.08;;
9773;SDS011;4926;42.670;23.316;2022-12-07T01:07:26;30.73;;;17.55;;
9773;SDS011;4926;42.670;23.316;2022-12-07T01:09:56;30.30;;;17.95;;
9773;SDS011;4926;42.670;23.316;2022-12-07T01:12:26;34.47;;;19.85;;
9773;SDS011;4926;42.670;23.316;2022-12-07T01:14:55;34.95;;;20.92;;
9773;SDS011;4926;42.670;23.316;2022-12-07T01:17:24;33.22;;;21.45;;
9773;SDS011;4926;42.670;23.316;2022-12-07T01:19:50;32.70;;;20.33;;
9773;SDS011;4926;42.670;23.316;2022-12-07T01:22:17;36.30;;;20.83;;
9773;SDS011;4926;42.670;23.316;2022-12-07T01:24:46;36.58;;;20.70;;
9773;SDS011;4926;42.670;23.316;2022-12-07T01:27:14;37.08;;;20.60;;
9773;SDS011;4926;42.670;23.316;2022-12-07T01:29:42;35.88;;;19.55;;
9773;SDS011;4926;42.670;23.316;2022-12-07T01:32:08;40.33;;;20.48;;
9773;SDS011;4926;42.670;23.316;2022-12-07T01:34:37;32.13;;;19.55;;
9773;SDS011;4926;42.670;23.316;2022-12-07T01:37:06;37.85;;;21.02;;
9773;SDS011;4926;42.670;23.316;2022-12-07T01:39:33;42.88;;;22.65;;
9773;SDS011;4926;42.670;23.316;2022-12-07T01:42:00;39.67;;;21.85;;
9773;SDS011;4926;42.670;23.316;2022-12-07T01:44:28;34.63;;;20.70;;
9773;SDS011;4926;42.670;23.316;2022-12-07T01:47:01;35.15;;;22.70;;
9773;SDS011;4926;42.670;23.316;2022-12-07T01:49:33;36.85;;;20.77;;
9773;SDS011;4926;42.670;23.316;2022-12-07T01:52:07;32.35;;;20.60;;
9773;SDS011;4926;42.670;23.316;2022-12-07T01:54:39;34.33;;;20.00;;
9773;SDS011;4926;42.670;23.316;2022-12-07T01:57:11;37.00;;;20.73;;
9773;SDS011;4926;42.670;23.316;2022-12-07T01:59:45;30.45;;;18.30;;
9773;SDS011;4926;42.670;23.316;2022-12-07T02:02:17;31.73;;;19.90;;
9773;SDS011;4926;42.670;23.316;2022-12-07T02:04:47;38.80;;;20.50;;
9773;SDS011;4926;42.670;23.316;2022-12-07T02:07:19;35.05;;;19.92;;
9773;SDS011;4926;42.670;23.316;2022-12-07T02:09:47;33.60;;;20.40;;
9773;SDS011;4926;42.670;23.316;2022-12-07T02:12:14;30.15;;;19.92;;
9773;SDS011;4926;42.670;23.316;2022-12-07T02:14:41;31.65;;;19.17;;
9773;SDS011;4926;42.670;23.316;2022-12-07T02:17:11;27.40;;;17.58;;
9773;SDS011;4926;42.670;23.316;2022-12-07T02:19:58;32.40;;;19.83;;
9773;SDS011;4926;42.670;23.316;2022-12-07T02:23:03;33.95;;;19.83;;
9773;SDS011;4926;42.670;23.316;2022-12-07T02:25:50;35.63;;;21.17;;
9773;SDS011;4926;42.670;23.316;2022-12-07T02:28:30;32.88;;;18.67;;
9773;SDS011;4926;42.670;23.316;2022-12-07T02:31:04;28.80;;;18.45;;
9773;SDS011;4926;42.670;23.316;2022-12-07T02:33:38;33.97;;;19.10;;
9773;SDS011;4926;42.670;23.316;2022-12-07T02:36:11;38.35;;;21.25;;
9773;SDS011;4926;42.670;23.316;2022-12-07T02:38:43;39.90;;;21.05;;
9773;SDS011;4926;42.670;23.316;2022-12-07T02:41:17;34.13;;;21.05;;
9773;SDS011;4926;42.670;23.316;2022-12-07T02:43:53;35.85;;;21.88;;
9773;SDS011;4926;42.670;23.316;2022-12-07T02:46:26;44.22;;;22.92;;
9773;SDS011;4926;42.670;23.316;2022-12-07T02:48:56;40.97;;;22.77;;
9773;SDS011;4926;42.670;23.316;2022-12-07T02:51:24;42.17;;;23.48;;
9773;SDS011;4926;42.670;23.316;2022-12-07T02:53:51;42.65;;;23.05;;
9773;SDS011;4926;42.670;23.316;2022-12-07T02:59:10;41.03;;;24.85;;
9773;SDS011;4926;42.670;23.316;2022-12-07T03:01:50;48.45;;;25.73;;
9773;SDS011;4926;42.670;23.316;2022-12-07T03:04:31;40.17;;;25.45;;
9773;SDS011;4926;42.670;23.316;2022-12-07T03:07:05;40.00;;;25.27;;
9773;SDS011;4926;42.670;23.316;2022-12-07T03:09:40;42.95;;;25.08;;
9773;SDS011;4926;42.670;23.316;2022-12-07T03:12:12;40.72;;;24.48;;
9773;SDS011;4926;42.670;23.316;2022-12-07T03:14:46;43.95;;;24.92;;
9773;SDS011;4926;42.670;23.316;2022-12-07T03:17:20;43.55;;;25.80;;
9773;SDS011;4926;42.670;23.316;2022-12-07T03:19:53;50.95;;;27.05;;
9773;SDS011;4926;42.670;23.316;2022-12-07T03:22:24;43.55;;;25.95;;
9773;SDS011;4926;42.670;23.316;2022-12-07T03:24:54;45.83;;;25.00;;
9773;SDS011;4926;42.670;23.316;2022-12-07T03:27:24;45.22;;;26.42;;
9773;SDS011;4926;42.670;23.316;2022-12-07T03:29:56;41.67;;;24.40;;
9773;SDS011;4926;42.670;23.316;2022-12-07T03:32:30;38.90;;;24.23;;
9773;SDS011;4926;42.670;23.316;2022-12-07T03:35:00;41.42;;;25.58;;
9773;SDS011;4926;42.670;23.316;2022-12-07T03:37:34;42.50;;;25.58;;
9773;SDS011;4926;42.670;23.316;2022-12-07T03:40:11;43.17;;;24.23;;
9773;SDS011;4926;42.670;23.316;2022-12-07T03:42:41;40.03;;;25.17;;
9773;SDS011;4926;42.670;23.316;2022-12-07T03:45:08;46.85;;;24.45;;
9773;SDS011;4926;42.670;23.316;2022-12-07T03:47:39;46.38;;;26.00;;
9773;SDS011;4926;42.670;23.316;2022-12-07T03:50:13;46.85;;;25.17;;
9773;SDS011;4926;42.670;23.316;2022-12-07T03:52:47;37.33;;;24.02;;
9773;SDS011;4926;42.670;23.316;2022-12-07T03:55:23;41.42;;;24.83;;
9773;SDS011;4926;42.670;23.316;2022-12-07T03:58:02;39.45;;;24.23;;
9773;SDS011;4926;42.670;23.316;2022-12-07T04:00:36;41.50;;;24.75;;
9773;SDS011;4926;42.670;23.316;2022-12-07T04:03:10;39.70;;;24.08;;
9773;SDS011;4926;42.670;23.316;2022-12-07T04:05:37;59.92;;;32.50;;
9773;SDS011;4926;42.670;23.316;2022-12-07T04:08:05;73.82;;;35.10;;
9773;SDS011;4926;42.670;23.316;2022-12-07T04:10:32;58.30;;;30.83;;
9773;SDS011;4926;42.670;23.316;2022-12-07T04:12:59;52.50;;;29.58;;
9773;SDS011;4926;42.670;23.316;2022-12-07T04:15:26;48.00;;;28.15;;
9773;SDS011;4926;42.670;23.316;2022-12-07T04:17:53;47.72;;;27.08;;
9773;SDS011;4926;42.670;23.316;2022-12-07T04:20:24;44.28;;;25.50;;
9773;SDS011;4926;42.670;23.316;2022-12-07T04:22:51;43.80;;;24.02;;
9773;SDS011;4926;42.670;23.316;2022-12-07T04:25:18;37.80;;;23.58;;
9773;SDS011;4926;42.670;23.316;2022-12-07T04:27:44;37.72;;;22.75;;
9773;SDS011;4926;42.670;23.316;2022-12-07T04:30:11;33.33;;;22.63;;
9773;SDS011;4926;42.670;23.316;2022-12-07T04:32:38;35.53;;;22.30;;
9773;SDS011;4926;42.670;23.316;2022-12-07T04:35:05;35.67;;;21.70;;
9773;SDS011;4926;42.670;23.316;2022-12-07T04:37:34;37.03;;;22.67;;
9773;SDS011;4926;42.670;23.316;2022-12-07T04:40:01;35.40;;;21.63;;
9773;SDS011;4926;42.670;23.316;2022-12-07T04:42:29;37.00;;;21.35;;
9773;SDS011;4926;42.670;23.316;2022-12-07T04:44:56;35.47;;;21.88;;
9773;SDS011;4926;42.670;23.316;2022-12-07T04:47:23;33.50;;;20.10;;
9773;SDS011;4926;42.670;23.316;2022-12-07T04:49:50;36.63;;;20.73;;
9773;SDS011;4926;42.670;23.316;2022-12-07T04:52:17;34.15;;;20.63;;
9773;SDS011;4926;42.670;23.316;2022-12-07T04:54:45;37.97;;;21.75;;
9773;SDS011;4926;42.670;23.316;2022-12-07T04:57:12;33.90;;;22.13;;
9773;SDS011;4926;42.670;23.316;2022-12-07T04:59:38;34.03;;;21.92;;
9773;SDS011;4926;42.670;23.316;2022-12-07T05:02:05;37.80;;;23.00;;
9773;SDS011;4926;42.670;23.316;2022-12-07T05:04:32;37.88;;;22.27;;
9773;SDS011;4926;42.670;23.316;2022-12-07T05:06:58;35.95;;;22.40;;
9773;SDS011;4926;42.670;23.316;2022-12-07T05:09:25;36.30;;;22.25;;
9773;SDS011;4926;42.670;23.316;2022-12-07T05:11:53;43.17;;;24.20;;
9773;SDS011;4926;42.670;23.316;2022-12-07T05:14:20;47.50;;;24.77;;
9773;SDS011;4926;42.670;23.316;2022-12-07T05:16:48;45.25;;;24.58;;
9773;SDS011;4926;42.670;23.316;2022-12-07T05:19:16;40.92;;;23.25;;
9773;SDS011;4926;42.670;23.316;2022-12-07T05:21:47;41.53;;;22.77;;
9773;SDS011;4926;42.670;23.316;2022-12-07T05:24:16;40.20;;;22.65;;
9773;SDS011;4926;42.670;23.316;2022-12-07T05:26:44;41.97;;;23.35;;
9773;SDS011;4926;42.670;23.316;2022-12-07T05:29:13;35.47;;;23.10;;
9773;SDS011;4926;42.670;23.316;2022-12-07T05:31:42;42.65;;;25.58;;
9773;SDS011;4926;42.670;23.316;2022-12-07T05:34:09;40.33;;;24.77;;
9773;SDS011;4926;42.670;23.316;2022-12-07T05:36:36;37.85;;;23.38;;
9773;SDS011;4926;42.670;23.316;2022-12-07T05:39:03;47.17;;;26.02;;
9773;SDS011;4926;42.670;23.316;2022-12-07T05:41:30;37.30;;;23.42;;
9773;SDS011;4926;42.670;23.316;2022-12-07T05:44:16;40.80;;;23.08;;
9773;SDS011;4926;42.670;23.316;2022-12-07T05:46:43;38.70;;;22.40;;
9773;SDS011;4926;42.670;23.316;2022-12-07T05:49:09;36.33;;;21.45;;
9773;SDS011;4926;42.670;23.316;2022-12-07T05:51:41;37.80;;;21.88;;
9773;SDS011;4926;42.670;23.316;2022-12-07T05:54:08;33.50;;;21.27;;
9773;SDS011;4926;42.670;23.316;2022-12-07T05:56:34;39.15;;;22.77;;
9773;SDS011;4926;42.670;23.316;2022-12-07T05:59:01;38.60;;;23.08;;
9773;SDS011;4926;42.670;23.316;2022-12-07T06:01:58;40.95;;;24.17;;
9773;SDS011;4926;42.670;23.316;2022-12-07T06:04:33;38.53;;;23.35;;
9773;SDS011;4926;42.670;23.316;2022-12-07T06:07:01;36.90;;;23.98;;
9773;SDS011;4926;42.670;23.316;2022-12-07T06:09:28;44.22;;;24.55;;
9773;SDS011;4926;42.670;23.316;2022-12-07T06:11:55;40.53;;;23.90;;
9773;SDS011;4926;42.670;23.316;2022-12-07T06:14:40;43.05;;;23.25;;
9773;SDS011;4926;42.670;23.316;2022-12-07T06:17:09;40.42;;;22.25;;
9773;SDS011;4926;42.670;23.316;2022-12-07T06:19:36;37.13;;;21.52;;
9773;SDS011;4926;42.670;23.316;2022-12-07T06:22:02;35.08;;;20.02;;
9773;SDS011;4926;42.670;23.316;2022-12-07T06:24:30;38.13;;;22.25;;
9773;SDS011;4926;42.670;23.316;2022-12-07T06:26:57;37.65;;;22.20;;
9773;SDS011;4926;42.670;23.316;2022-12-07T06:29:24;39.88;;;23.27;;
9773;SDS011;4926;42.670;23.316;2022-12-07T06:31:51;40.65;;;22.17;;
9773;SDS011;4926;42.670;23.316;2022-12-07T06:34:22;42.50;;;22.73;;
9773;SDS011;4926;42.670;23.316;2022-12-07T06:36:51;36.63;;;21.42;;
9773;SDS011;4926;42.670;23.316;2022-12-07T06:39:20;38.92;;;21.15;;
9773;SDS011;4926;42.670;23.316;2022-12-07T06:41:49;40.10;;;22.60;;
9773;SDS011;4926;42.670;23.316;2022-12-07T06:44:18;39.53;;;24.05;;
9773;SDS011;4926;42.670;23.316;2022-12-07T06:46:45;39.75;;;24.08;;
9773;SDS011;4926;42.670;23.316;2022-12-07T06:49:12;38.83;;;24.52;;
9773;SDS011;4926;42.670;23.316;2022-12-07T06:51:40;41.50;;;23.80;;
9773;SDS011;4926;42.670;23.316;2022-12-07T06:54:07;40.72;;;24.58;;
9773;SDS011;4926;42.670;23.316;2022-12-07T06:56:35;41.35;;;23.02;;
9773;SDS011;4926;42.670;23.316;2022-12-07T06:59:07;41.85;;;23.33;;
9773;SDS011;4926;42.670;23.316;2022-12-07T07:01:34;37.67;;;21.30;;
9773;SDS011;4926;42.670;23.316;2022-12-07T07:04:03;39.05;;;23.02;;
9773;SDS011;4926;42.670;23.316;2022-12-07T07:06:30;38.80;;;21.70;;
9773;SDS011;4926;42.670;23.316;2022-12-07T07:08:58;41.58;;;22.45;;
9773;SDS011;4926;42.670;23.316;2022-12-07T07:11:25;46.90;;;23.90;;
9773;SDS011;4926;42.670;23.316;2022-12-07T07:13:52;36.55;;;21.83;;
9773;SDS011;4926;42.670;23.316;2022-12-07T07:16:22;43.53;;;24.10;;
9773;SDS011;4926;42.670;23.316;2022-12-07T07:18:48;36.15;;;21.73;;
9773;SDS011;4926;42.670;23.316;2022-12-07T07:21:15;43.45;;;22.45;;
9773;SDS011;4926;42.670;23.316;2022-12-07T07:23:42;38.65;;;21.52;;
9773;SDS011;4926;42.670;23.316;2022-12-07T07:26:10;44.80;;;24.05;;
9773;SDS011;4926;42.670;23.316;2022-12-07T07:28:38;39.17;;;22.35;;
9773;SDS011;4926;42.670;23.316;2022-12-07T07:31:05;37.33;;;21.67;;
9773;SDS011;4926;42.670;23.316;2022-12-07T07:33:31;38.95;;;21.50;;
9773;SDS011;4926;42.670;23.316;2022-12-07T07:35:58;40.58;;;22.63;;
9773;SDS011;4926;42.670;23.316;2022-12-07T07:38:27;41.72;;;24.55;;
9773;SDS011;4926;42.670;23.316;2022-12-07T07:40:54;39.72;;;23.20;;
9773;SDS011;4926;42.670;23.316;2022-12-07T07:43:22;41.00;;;22.77;;
9773;SDS011;4926;42.670;23.316;2022-12-07T07:45:49;42.33;;;24.02;;
9773;SDS011;4926;42.670;23.316;2022-12-07T07:48:15;34.95;;;21.85;;
9773;SDS011;4926;42.670;23.316;2022-12-07T07:50:50;37.03;;;23.20;;
9773;SDS011;4926;42.670;23.316;2022-12-07T07:53:17;43.58;;;25.60;;
9773;SDS011;4926;42.670;23.316;2022-12-07T07:55:49;34.92;;;23.40;;
9773;SDS011;4926;42.670;23.316;2022-12-07T07:58:18;38.10;;;23.50;;
9773;SDS011;4926;42.670;23.316;2022-12-07T08:00:46;38.42;;;23.42;;
9773;SDS011;4926;42.670;23.316;2022-12-07T08:03:13;37.20;;;23.90;;
9773;SDS011;4926;42.670;23.316;2022-12-07T08:05:39;37.70;;;22.40;;
9773;SDS011;4926;42.670;23.316;2022-12-07T08:08:06;42.42;;;23.63;;
9773;SDS011;4926;42.670;23.316;2022-12-07T08:10:33;41.03;;;24.73;;
9773;SDS011;4926;42.670;23.316;2022-12-07T08:13:03;46.60;;;25.10;;
9773;SDS011;4926;42.670;23.316;2022-12-07T08:15:40;40.53;;;23.30;;
9773;SDS011;4926;42.670;23.316;2022-12-07T08:18:16;39.60;;;24.20;;
9773;SDS011;4926;42.670;23.316;2022-12-07T08:20:45;36.72;;;23.08;;
9773;SDS011;4926;42.670;23.316;2022-12-07T08:23:12;37.33;;;22.67;;
9773;SDS011;4926;42.670;23.316;2022-12-07T08:25:38;37.45;;;23.95;;
9773;SDS011;4926;42.670;23.316;2022-12-07T08:28:06;41.50;;;24.35;;
9773;SDS011;4926;42.670;23.316;2022-12-07T08:30:33;42.92;;;27.55;;
9773;SDS011;4926;42.670;23.316;2022-12-07T08:33:02;39.78;;;24.85;;
9773;SDS011;4926;42.670;23.316;2022-12-07T08:35:32;40.88;;;25.30;;
9773;SDS011;4926;42.670;23.316;2022-12-07T08:37:59;49.72;;;25.65;;
9773;SDS011;4926;42.670;23.316;2022-12-07T08:40:27;39.90;;;26.40;;
9773;SDS011;4926;42.670;23.316;2022-12-07T08:43:00;49.47;;;26.17;;
9773;SDS011;4926;42.670;23.316;2022-12-07T08:45:29;43.60;;;26.40;;
9773;SDS011;4926;42.670;23.316;2022-12-07T08:48:01;46.65;;;27.33;;
9773;SDS011;4926;42.670;23.316;2022-12-07T08:50:34;44.75;;;27.30;;
9773;SDS011;4926;42.670;23.316;2022-12-07T08:53:03;45.05;;;27.05;;
9773;SDS011;4926;42.670;23.316;2022-12-07T08:55:33;41.15;;;26.17;;
9773;SDS011;4926;42.670;23.316;2022-12-07T08:58:02;41.03;;;25.48;;
9773;SDS011;4926;42.670;23.316;2022-12-07T09:00:29;41.35;;;26.15;;
9773;SDS011;4926;42.670;23.316;2022-12-07T09:02:56;45.30;;;25.60;;
9773;SDS011;4926;42.670;23.316;2022-12-07T09:05:22;45.25;;;25.50;;
9773;SDS011;4926;42.670;23.316;2022-12-07T09:07:54;49.63;;;24.60;;
9773;SDS011;4926;42.670;23.316;2022-12-07T09:10:26;40.65;;;25.35;;
9773;SDS011;4926;42.670;23.316;2022-12-07T09:12:57;39.05;;;25.25;;
9773;SDS011;4926;42.670;23.316;2022-12-07T09:15:27;39.55;;;23.92;;
9773;SDS011;4926;42.670;23.316;2022-12-07T09:17:53;42.40;;;24.17;;
9773;SDS011;4926;42.670;23.316;2022-12-07T09:20:24;36.70;;;22.98;;
9773;SDS011;4926;42.670;23.316;2022-12-07T09:22:51;43.05;;;22.98;;
9773;SDS011;4926;42.670;23.316;2022-12-07T09:25:19;42.97;;;23.80;;
9773;SDS011;4926;42.670;23.316;2022-12-07T09:27:45;36.55;;;21.33;;
9773;SDS011;4926;42.670;23.316;2022-12-07T09:30:13;45.10;;;23.10;;
9773;SDS011;4926;42.670;23.316;2022-12-07T09:32:40;40.03;;;22.63;;
9773;SDS011;4926;42.670;23.316;2022-12-07T09:35:06;37.28;;;22.48;;
9773;SDS011;4926;42.670;23.316;2022-12-07T09:37:36;44.47;;;23.48;;
9773;SDS011;4926;42.670;23.316;2022-12-07T09:40:05;44.45;;;24.65;;
9773;SDS011;4926;42.670;23.316;2022-12-07T09:42:34;40.30;;;23.98;;
9773;SDS011;4926;42.670;23.316;2022-12-07T09:45:05;37.10;;;23.38;;
9773;SDS011;4926;42.670;23.316;2022-12-07T09:47:37;39.97;;;24.35;;
9773;SDS011;4926;42.670;23.316;2022-12-07T09:50:05;42.90;;;24.63;;
9773;SDS011;4926;42.670;23.316;2022-12-07T09:52:37;45.47;;;26.35;;
9773;SDS011;4926;42.670;23.316;2022-12-07T09:55:10;37.60;;;24.40;;
9773;SDS011;4926;42.670;23.316;2022-12-07T09:57:39;48.53;;;24.63;;
9773;SDS011;4926;42.670;23.316;2022-12-07T10:00:09;41.58;;;25.85;;
9773;SDS011;4926;42.670;23.316;2022-12-07T10:02:39;45.00;;;25.90;;
9773;SDS011;4926;42.670;23.316;2022-12-07T10:05:10;39.30;;;25.20;;
9773;SDS011;4926;42.670;23.316;2022-12-07T10:07:39;41.53;;;25.83;;
9773;SDS011;4926;42.670;23.316;2022-12-07T10:10:15;39.97;;;24.80;;
9773;SDS011;4926;42.670;23.316;2022-12-07T10:12:55;37.90;;;24.80;;
9773;SDS011;4926;42.670;23.316;2022-12-07T10:15:37;41.10;;;25.42;;
9773;SDS011;4926;42.670;23.316;2022-12-07T10:18:16;37.92;;;24.75;;
9773;SDS011;4926;42.670;23.316;2022-12-07T10:20:47;38.72;;;24.92;;
9773;SDS011;4926;42.670;23.316;2022-12-07T10:23:15;39.33;;;22.77;;
9773;SDS011;4926;42.670;23.316;2022-12-07T10:25:46;46.15;;;23.48;;
9773;SDS011;4926;42.670;23.316;2022-12-07T10:28:15;35.40;;;23.50;;
9773;SDS011;4926;42.670;23.316;2022-12-07T10:30:53;39.92;;;21.77;;
9773;SDS011;4926;42.670;23.316;2022-12-07T10:33:31;37.33;;;20.52;;
9773;SDS011;4926;42.670;23.316;2022-12-07T10:36:00;41.55;;;23.05;;
9773;SDS011;4926;42.670;23.316;2022-12-07T10:38:44;34.42;;;20.95;;
9773;SDS011;4926;42.670;23.316;2022-12-07T10:41:14;33.15;;;21.00;;
9773;SDS011;4926;42.670;23.316;2022-12-07T10:43:51;43.22;;;22.70;;
9773;SDS011;4926;42.670;23.316;2022-12-07T10:46:47;38.65;;;21.58;;
9773;SDS011;4926;42.670;23.316;2022-12-07T10:52:41;36.65;;;20.08;;
9773;SDS011;4926;42.670;23.316;2022-12-07T10:55:20;33.83;;;20.85;;
9773;SDS011;4926;42.670;23.316;2022-12-07T10:57:56;32.05;;;21.00;;
9773;SDS011;4926;42.670;23.316;2022-12-07T11:00:35;33.47;;;20.65;;
9773;SDS011;4926;42.670;23.316;2022-12-07T11:03:17;34.60;;;19.80;;
9773;SDS011;4926;42.670;23.316;2022-12-07T11:05:58;30.85;;;19.50;;
9773;SDS011;4926;42.670;23.316;2022-12-07T11:08:42;37.50;;;20.27;;
9773;SDS011;4926;42.670;23.316;2022-12-07T11:11:20;32.75;;;20.38;;
9773;SDS011;4926;42.670;23.316;2022-12-07T11:14:01;36.45;;;19.38;;
9773;SDS011;4926;42.670;23.316;2022-12-07T11:16:43;34.30;;;19.83;;
9773;SDS011;4926;42.670;23.316;2022-12-07T11:19:24;34.13;;;21.10;;
9773;SDS011;4926;42.670;23.316;2022-12-07T11:22:03;34.95;;;20.90;;
9773;SDS011;4926;42.670;23.316;2022-12-07T11:24:32;30.23;;;19.88;;
9773;SDS011;4926;42.670;23.316;2022-12-07T11:27:10;33.35;;;20.20;;
9773;SDS011;4926;42.670;23.316;2022-12-07T11:30:02;34.13;;;21.88;;
9773;SDS011;4926;42.670;23.316;2022-12-07T11:32:41;33.65;;;21.38;;
9773;SDS011;4926;42.670;23.316;2022-12-07T11:35:18;33.70;;;20.30;;
9773;SDS011;4926;42.670;23.316;2022-12-07T11:37:57;37.40;;;20.88;;
9773;SDS011;4926;42.670;23.316;2022-12-07T11:40:28;34.70;;;21.13;;
9773;SDS011;4926;42.670;23.316;2022-12-07T11:43:01;34.88;;;19.20;;
9773;SDS011;4926;42.670;23.316;2022-12-07T11:45:32;31.40;;;17.90;;
9773;SDS011;4926;42.670;23.316;2022-12-07T11:48:00;33.10;;;18.40;;
9773;SDS011;4926;42.670;23.316;2022-12-07T11:50:32;29.23;;;18.85;;
9773;SDS011;4926;42.670;23.316;2022-12-07T11:53:03;29.67;;;18.45;;
9773;SDS011;4926;42.670;23.316;2022-12-07T11:55:41;27.80;;;19.23;;
9773;SDS011;4926;42.670;23.316;2022-12-07T12:01:22;28.60;;;17.67;;
9773;SDS011;4926;42.670;23.316;2022-12-07T12:04:01;29.88;;;19.17;;
9773;SDS011;4926;42.670;23.316;2022-12-07T12:06:32;32.50;;;18.23;;
9773;SDS011;4926;42.670;23.316;2022-12-07T12:09:01;29.55;;;19.73;;
9773;SDS011;4926;42.670;23.316;2022-12-07T12:11:38;27.27;;;16.98;;
9773;SDS011;4926;42.670;23.316;2022-12-07T12:14:23;27.92;;;17.55;;
9773;SDS011;4926;42.670;23.316;2022-12-07T12:20:03;25.60;;;16.25;;
9773;SDS011;4926;42.670;23.316;2022-12-07T12:22:42;33.35;;;16.48;;
9773;SDS011;4926;42.670;23.316;2022-12-07T12:25:17;25.65;;;16.27;;
9773;SDS011;4926;42.670;23.316;2022-12-07T12:27:50;30.50;;;16.33;;
9773;SDS011;4926;42.670;23.316;2022-12-07T12:30:25;24.55;;;15.00;;
9773;SDS011;4926;42.670;23.316;2022-12-07T12:33:02;24.25;;;16.00;;
9773;SDS011;4926;42.670;23.316;2022-12-07T12:35:32;29.83;;;16.27;;
9773;SDS011;4926;42.670;23.316;2022-12-07T12:38:24;27.25;;;16.85;;
9773;SDS011;4926;42.670;23.316;2022-12-07T12:40:54;27.00;;;16.30;;
9773;SDS011;4926;42.670;23.316;2022-12-07T12:46:36;28.55;;;15.48;;
9773;SDS011;4926;42.670;23.316;2022-12-07T12:55:28;31.70;;;15.43;;
9773;SDS011;4926;42.670;23.316;2022-12-07T12:58:32;21.17;;;14.57;;
9773;SDS011;4926;42.670;23.316;2022-12-07T13:10:33;18.23;;;11.43;;
9773;SDS011;4926;42.670;23.316;2022-12-07T13:22:08;20.80;;;11.55;;
9773;SDS011;4926;42.670;23.316;2022-12-07T13:25:29;21.50;;;11.80;;
9773;SDS011;4926;42.670;23.316;2022-12-07T13:28:01;16.80;;;11.60;;
9773;SDS011;4926;42.670;23.316;2022-12-07T13:30:39;20.13;;;11.05;;
9773;SDS011;4926;42.670;23.316;2022-12-07T13:33:11;14.98;;;11.07;;
9773;SDS011;4926;42.670;23.316;2022-12-07T13:35:40;21.40;;;13.50;;
9773;SDS011;4926;42.670;23.316;2022-12-07T13:38:15;20.88;;;11.65;;
9773;SDS011;4926;42.670;23.316;2022-12-07T13:43:45;22.30;;;13.05;;
9773;SDS011;4926;42.670;23.316;2022-12-07T13:46:17;23.27;;;11.80;;
9773;SDS011;4926;42.670;23.316;2022-12-07T13:48:46;18.08;;;10.90;;
9773;SDS011;4926;42.670;23.316;2022-12-07T13:51:18;20.08;;;10.30;;
9773;SDS011;4926;42.670;23.316;2022-12-07T13:53:48;20.27;;;11.23;;
9773;SDS011;4926;42.670;23.316;2022-12-07T13:56:16;18.35;;;11.23;;
9773;SDS011;4926;42.670;23.316;2022-12-07T13:58:43;22.25;;;10.55;;
9773;SDS011;4926;42.670;23.316;2022-12-07T14:01:10;17.95;;;10.98;;
9773;SDS011;4926;42.670;23.316;2022-12-07T14:03:38;19.10;;;10.93;;
9773;SDS011;4926;42.670;23.316;2022-12-07T14:06:16;19.70;;;11.45;;
9773;SDS011;4926;42.670;23.316;2022-12-07T14:08:50;19.55;;;11.02;;
9773;SDS011;4926;42.670;23.316;2022-12-07T14:11:32;14.98;;;10.70;;
9773;SDS011;4926;42.670;23.316;2022-12-07T14:14:00;18.35;;;11.38;;
9773;SDS011;4926;42.670;23.316;2022-12-07T14:16:31;20.15;;;11.32;;
9773;SDS011;4926;42.670;23.316;2022-12-07T14:19:00;20.67;;;11.70;;
9773;SDS011;4926;42.670;23.316;2022-12-07T14:21:29;19.08;;;11.18;;
9773;SDS011;4926;42.670;23.316;2022-12-07T14:26:49;19.17;;;12.45;;
9773;SDS011;4926;42.670;23.316;2022-12-07T14:29:29;22.30;;;12.95;;
9773;SDS011;4926;42.670;23.316;2022-12-07T14:32:10;20.85;;;12.68;;
9773;SDS011;4926;42.670;23.316;2022-12-07T14:34:57;21.25;;;12.30;;
9773;SDS011;4926;42.670;23.316;2022-12-07T14:37:26;19.80;;;12.82;;
9773;SDS011;4926;42.670;23.316;2022-12-07T14:39:54;23.48;;;13.05;;
9773;SDS011;4926;42.670;23.316;2022-12-07T14:42:23;24.35;;;13.25;;
9773;SDS011;4926;42.670;23.316;2022-12-07T14:44:53;19.27;;;13.20;;
9773;SDS011;4926;42.670;23.316;2022-12-07T14:47:23;22.27;;;12.57;;
9773;SDS011;4926;42.670;23.316;2022-12-07T14:49:50;23.13;;;14.13;;
9773;SDS011;4926;42.670;23.316;2022-12-07T14:52:17;30.13;;;14.48;;
9773;SDS011;4926;42.670;23.316;2022-12-07T14:54:48;27.48;;;14.63;;
9773;SDS011;4926;42.670;23.316;2022-12-07T14:57:20;28.65;;;15.85;;
9773;SDS011;4926;42.670;23.316;2022-12-07T14:59:49;26.52;;;16.92;;
9773;SDS011;4926;42.670;23.316;2022-12-07T15:02:15;26.70;;;15.15;;
9773;SDS011;4926;42.670;23.316;2022-12-07T15:04:42;30.70;;;15.73;;
9773;SDS011;4926;42.670;23.316;2022-12-07T15:07:11;25.88;;;14.52;;
9773;SDS011;4926;42.670;23.316;2022-12-07T15:09:41;27.98;;;15.02;;
9773;SDS011;4926;42.670;23.316;2022-12-07T15:12:07;30.60;;;15.25;;
9773;SDS011;4926;42.670;23.316;2022-12-07T15:14:35;24.67;;;15.40;;
9773;SDS011;4926;42.670;23.316;2022-12-07T15:17:02;27.48;;;14.80;;
9773;SDS011;4926;42.670;23.316;2022-12-07T15:19:29;25.48;;;15.98;;
9773;SDS011;4926;42.670;23.316;2022-12-07T15:21:56;30.58;;;16.77;;
9773;SDS011;4926;42.670;23.316;2022-12-07T15:24:25;27.63;;;15.95;;
9773;SDS011;4926;42.670;23.316;2022-12-07T15:26:52;25.17;;;15.45;;
9773;SDS011;4926;42.670;23.316;2022-12-07T15:29:22;27.55;;;15.93;;
9773;SDS011;4926;42.670;23.316;2022-12-07T15:31:54;23.63;;;15.70;;
9773;SDS011;4926;42.670;23.316;2022-12-07T15:34:22;27.58;;;16.65;;
9773;SDS011;4926;42.670;23.316;2022-12-07T15:36:49;25.13;;;16.85;;
9773;SDS011;4926;42.670;23.316;2022-12-07T15:39:19;32.53;;;17.92;;
9773;SDS011;4926;42.670;23.316;2022-12-07T15:41:46;32.58;;;17.98;;